Red Wing, MN (55066)

5:53 AM CDT on September 03, 2015 (GMT -0500)
APRSWXNET | | Change Station
CLOSE
Current Station
Personal Weather Station
Location: Red Wing, MN
Elevation: 853 ft
Nearby Weather Stations

Elev 853 ft 44.55 °N, 92.60 °W | Updated 53 minutes ago

Fog
Fog
69 °F
Feels Like 69 °F
N
2
Wind Variable Wind from East
Gusts 3.0 mph

Today
High -- | Low -- °F
--% Chance of Precip.
Yesterday
High -- | Low -- °F
Precip. -- in
6:34 AM 7:43 PM
Waning Gibbous, 71% visible
Pressure 29.90 in
Visibility 0.8 miles
Clouds Overcast 100 ft
Dew Point 68 °F
Humidity 98%
Rainfall in
Snow Depth Not available.
UV 0 out of 12
Pollen 9.20 out of 12
Air Quality Not available.
Flu Activity Not available.
METAR KRGK 031035Z AUTO 09004KT 3/4SM BR OVC001 21/19 A2990 RMK AO2
Pressure 29.90 in
Visibility 0.8 miles
Clouds Overcast 100 ft
Dew Point 68 °F
Humidity 98%
Rainfall in
Snow Depth Not available.
UV 0 out of 12
Pollen 9.20 out of 12
Air Quality Not available.
Flu Activity Not available.
METAR KRGK 031035Z AUTO 09004KT 3/4SM BR OVC001 21/19 A2990 RMK AO2

10-Day Weather Forecast

×

Almanac

Astronomy

Sep. 03, 2015 Rise Set
Actual Time
Civil Twilight
Nautical Twilight
Astronomical Twilight
Moon
Length of Visible Light
Length of Day
Tomorrow will be .
, % of the Moon is Illuminated

Today's Extremes

State Highs State Lows

Community

WunderPhotos

Upload Photos

1,851,933 photos uploaded!

WunderBlogs® & News

Nearby

Air Quality

  Air Quality AQ Index Pollutant
Not available.

Snow Depth

Station Depth Elevation

Earthquake Activity

City Distance Mag. Time & Date
Minimum magnitude displayed is 2.5.

Coastal Water Temperatures

Place Temperature

Stations

Nearby Weather Stations

Station Location Temp. Windchill Dew Point Humidity Wind Precip. Elev Updated Type
                   
Dense Fog Advisory
Statement as of 5:41 AM CDT on September 03, 2015

... Dense fog advisory in effect until 9 am CDT this morning...

The National Weather Service in Twin Cities/Chanhassen has issued
a dense fog advisory... which is in effect until 9 am CDT this
morning.

* Visibility... reduced to one quarter mile or less.

* Impacts... significantly reduced visibility which will lead to
hazardous driving conditions.

Precautionary/preparedness actions...

A dense fog advisory means visibilities will frequently be
reduced to less than one quarter mile. If driving... slow down...
use your headlights... and leave plenty of distance ahead of you.
Be extra aware of children awaiting school buses or walking to
school.




Special Statement
Statement as of 3:26 AM CDT on September 03, 2015

... Pockets of dense fog this morning...

A few areas of dense fog will continue through the early morning
across southern MN... including I-35.


Jrb

326 am CDT Thu Sep 3 2015

... Pockets of dense fog this morning...

A few areas of dense fog will continue through the early morning
across southern MN... including I-35.


Jrb